createdAt,value
2022-08-09T00:02:49.525Z,18.40
2022-08-09T00:06:18.384Z,18.30
2022-08-09T00:08:48.657Z,18.30
2022-08-09T00:12:02.854Z,18.30
2022-08-09T00:14:49.196Z,18.20
2022-08-09T00:18:05.512Z,18.30
2022-08-09T00:20:51.957Z,18.20
2022-08-09T00:23:57.652Z,18.10
2022-08-09T00:26:48.932Z,18.20
2022-08-09T00:29:39.390Z,18.20
2022-08-09T00:32:47.654Z,18.20
2022-08-09T00:35:43.118Z,18.20
2022-08-09T00:38:32.361Z,18.10
2022-08-09T00:44:14.087Z,18.10
2022-08-09T00:44:31.930Z,18.10
2022-08-09T00:47:20.804Z,18.00
2022-08-09T00:50:15.234Z,18.00
2022-08-09T00:53:08.831Z,17.90
2022-08-09T00:56:05.708Z,17.90
2022-08-09T00:58:58.675Z,17.90
2022-08-09T01:01:50.104Z,17.90
2022-08-09T01:04:50.184Z,17.80
2022-08-09T01:08:00.912Z,17.80
2022-08-09T01:10:57.505Z,17.80
2022-08-09T01:13:59.103Z,17.70
2022-08-09T01:16:52.455Z,17.70
2022-08-09T01:20:01.753Z,17.60
2022-08-09T01:24:00.773Z,17.60
2022-08-09T01:26:46.298Z,17.50
2022-08-09T01:29:55.131Z,17.40
2022-08-09T01:32:48.541Z,17.40
2022-08-09T01:35:47.917Z,17.30
2022-08-09T01:38:46.345Z,17.30
2022-08-09T01:41:55.998Z,17.20
2022-08-09T01:44:52.410Z,17.20
2022-08-09T01:47:44.906Z,17.10
2022-08-09T01:50:37.172Z,17.10
2022-08-09T01:53:41.387Z,17.10
2022-08-09T01:56:32.606Z,17.00
2022-08-09T01:59:23.449Z,16.90
2022-08-09T02:02:16.651Z,16.90
2022-08-09T02:05:16.825Z,16.90
2022-08-09T02:08:57.238Z,16.90
2022-08-09T02:11:46.667Z,16.90
2022-08-09T02:14:41.817Z,16.80
2022-08-09T02:17:59.361Z,16.80
2022-08-09T02:20:47.594Z,16.80
2022-08-09T02:23:43.191Z,16.70
2022-08-09T02:26:36.596Z,16.70
2022-08-09T02:29:28.587Z,16.70
2022-08-09T02:32:22.561Z,16.70
2022-08-09T02:35:23.101Z,16.70
2022-08-09T02:38:31.952Z,16.70
2022-08-09T02:41:29.534Z,16.70
2022-08-09T02:44:29.072Z,16.70
2022-08-09T02:47:22.164Z,16.70
2022-08-09T02:50:15.624Z,16.70
2022-08-09T02:53:17.416Z,16.70
2022-08-09T02:56:17.417Z,16.70
2022-08-09T02:59:12.836Z,16.60
2022-08-09T03:02:17.286Z,16.60
2022-08-09T03:05:09.174Z,16.60
2022-08-09T03:08:08.526Z,16.60
2022-08-09T03:10:58.342Z,16.60
2022-08-09T03:13:59.361Z,16.60
2022-08-09T03:16:50.892Z,16.50
2022-08-09T03:19:52.851Z,16.50
2022-08-09T03:22:57.031Z,16.50
2022-08-09T03:26:03.225Z,16.50
2022-08-09T03:28:55.616Z,16.50
2022-08-09T03:32:00.340Z,16.40
2022-08-09T03:34:49.558Z,16.40
2022-08-09T03:37:56.051Z,16.40
2022-08-09T03:40:48.608Z,16.40
2022-08-09T03:43:37.457Z,16.30
2022-08-09T03:46:29.185Z,16.30
2022-08-09T03:49:21.323Z,16.20
2022-08-09T03:52:13.272Z,16.20
2022-08-09T03:55:07.677Z,16.20
2022-08-09T03:58:07.066Z,16.20
2022-08-09T04:01:05.225Z,16.20
2022-08-09T04:04:01.315Z,16.10
2022-08-09T04:06:52.442Z,16.00
2022-08-09T04:09:47.971Z,15.90
2022-08-09T04:12:47.553Z,15.90
2022-08-09T04:16:17.682Z,15.90
2022-08-09T04:18:51.130Z,15.80
2022-08-09T04:21:40.288Z,15.80
2022-08-09T04:24:30.111Z,15.70
2022-08-09T04:27:22.441Z,15.70
2022-08-09T04:30:13.961Z,15.70
2022-08-09T04:33:03.972Z,15.70
2022-08-09T04:35:52.557Z,15.70
2022-08-09T04:38:41.221Z,15.70
2022-08-09T04:41:32.283Z,15.60
2022-08-09T04:44:21.348Z,15.60
2022-08-09T04:47:12.563Z,15.70
2022-08-09T04:50:03.761Z,15.70
2022-08-09T04:52:52.395Z,15.70
2022-08-09T04:55:58.223Z,15.70
2022-08-09T04:58:48.126Z,15.80
2022-08-09T05:01:39.465Z,15.80
2022-08-09T05:04:31.185Z,15.80
2022-08-09T05:07:21.460Z,15.90
2022-08-09T05:10:13.099Z,15.90
2022-08-09T05:13:03.886Z,15.90
2022-08-09T05:15:56.443Z,16.00
2022-08-09T05:18:58.577Z,16.00
2022-08-09T05:21:55.280Z,16.10
2022-08-09T05:24:47.648Z,16.10
2022-08-09T05:27:39.045Z,16.10
2022-08-09T05:30:36.514Z,16.20
2022-08-09T05:33:32.964Z,16.20
2022-08-09T05:36:21.891Z,16.20
2022-08-09T05:39:28.398Z,16.20
2022-08-09T05:42:21.942Z,16.30
2022-08-09T05:45:16.836Z,16.30
2022-08-09T05:48:06.185Z,16.40
2022-08-09T05:51:30.024Z,16.60
2022-08-09T05:54:05.869Z,16.70
2022-08-09T05:59:32.394Z,17.00
2022-08-09T06:02:22.674Z,17.10
2022-08-09T06:05:12.326Z,17.20
2022-08-09T06:08:04.964Z,17.30
2022-08-09T06:10:58.286Z,17.30
2022-08-09T06:13:47.921Z,17.40
2022-08-09T06:16:38.418Z,17.40
2022-08-09T06:19:30.060Z,17.60
2022-08-09T06:22:28.978Z,17.60
2022-08-09T06:25:18.514Z,17.70
2022-08-09T06:28:09.937Z,17.90
2022-08-09T06:30:58.661Z,18.00
2022-08-09T06:33:53.326Z,18.10
2022-08-09T06:36:43.970Z,18.20
2022-08-09T06:39:49.193Z,18.30
2022-08-09T06:42:44.783Z,18.40
2022-08-09T06:46:06.665Z,18.30
2022-08-09T06:48:43.018Z,18.30
2022-08-09T06:51:39.924Z,18.30
2022-08-09T06:54:28.914Z,18.40
2022-08-09T06:57:17.512Z,18.40
2022-08-09T07:00:57.405Z,18.50
2022-08-09T07:03:16.146Z,18.70
2022-08-09T07:06:06.058Z,18.80
2022-08-09T07:08:56.043Z,18.80
2022-08-09T07:11:52.257Z,18.90
2022-08-09T07:14:42.288Z,19.00
2022-08-09T07:17:39.860Z,19.10
2022-08-09T07:20:39.744Z,19.10
2022-08-09T07:23:32.466Z,19.20
2022-08-09T07:26:26.821Z,19.30
2022-08-09T07:29:16.181Z,19.40
2022-08-09T07:32:05.350Z,19.50
2022-08-09T07:34:54.445Z,19.40
2022-08-09T07:37:46.101Z,19.40
2022-08-09T07:41:00.643Z,19.50
2022-08-09T07:43:55.716Z,19.60
2022-08-09T07:46:45.237Z,19.70
2022-08-09T07:49:36.308Z,19.80
2022-08-09T07:52:44.828Z,19.90
2022-08-09T07:55:41.514Z,20.00
2022-08-09T07:58:47.291Z,20.00
2022-08-09T08:01:36.388Z,20.10
2022-08-09T08:04:31.647Z,20.20
2022-08-09T08:08:43.836Z,20.40
2022-08-09T08:10:30.159Z,20.50
2022-08-09T08:13:23.051Z,20.60
2022-08-09T08:16:29.526Z,20.60
2022-08-09T08:19:20.654Z,20.60
2022-08-09T08:22:10.165Z,20.70
2022-08-09T08:24:58.799Z,20.90
2022-08-09T08:27:49.796Z,21.10
2022-08-09T08:30:39.077Z,21.30
2022-08-09T08:33:40.736Z,21.50
2022-08-09T08:36:40.238Z,21.50
2022-08-09T08:39:28.913Z,21.40
2022-08-09T08:42:24.209Z,21.50
2022-08-09T08:45:37.395Z,21.70
2022-08-09T08:48:29.044Z,22.20
2022-08-09T08:51:22.513Z,22.50
2022-08-09T08:54:20.450Z,22.50
2022-08-09T08:57:18.744Z,22.60
2022-08-09T09:00:16.893Z,22.50
2022-08-09T09:03:22.661Z,22.50
2022-08-09T09:06:16.462Z,22.60
2022-08-09T09:09:21.190Z,22.60
2022-08-09T09:12:17.827Z,22.80
2022-08-09T09:15:07.793Z,22.80
2022-08-09T09:17:56.429Z,22.80
2022-08-09T09:20:45.369Z,23.00
2022-08-09T09:23:57.257Z,23.20
2022-08-09T09:26:57.680Z,23.50
2022-08-09T09:30:10.486Z,23.70
2022-08-09T09:33:16.471Z,24.20
2022-08-09T09:36:20.056Z,24.60
2022-08-09T09:39:11.825Z,24.80
2022-08-09T09:42:10.406Z,24.90
2022-08-09T09:45:02.951Z,24.70
2022-08-09T09:47:58.253Z,24.70
2022-08-09T09:50:51.547Z,24.70
2022-08-09T09:53:57.868Z,24.70
2022-08-09T09:58:00.846Z,24.70
2022-08-09T10:00:03.395Z,24.70
2022-08-09T10:02:52.361Z,24.80
2022-08-09T10:06:01.372Z,25.00
2022-08-09T10:08:59.738Z,25.00
2022-08-09T10:11:54.017Z,25.20
2022-08-09T10:14:51.754Z,25.20
2022-08-09T10:17:56.115Z,25.20
2022-08-09T10:20:45.965Z,25.50
2022-08-09T10:23:35.425Z,25.80
2022-08-09T10:26:29.066Z,25.90
2022-08-09T10:29:37.159Z,25.80
2022-08-09T10:32:40.027Z,25.60
2022-08-09T10:35:33.375Z,25.50
2022-08-09T10:38:43.207Z,25.50
2022-08-09T10:41:31.343Z,25.50
2022-08-09T10:44:21.660Z,25.50
2022-08-09T10:48:13.449Z,25.50
2022-08-09T10:51:03.704Z,25.40
2022-08-09T10:53:59.736Z,25.40
2022-08-09T10:57:08.954Z,25.40
2022-08-09T11:00:01.675Z,25.60
2022-08-09T11:03:15.113Z,25.90
2022-08-09T11:06:26.295Z,25.90
2022-08-09T11:09:19.650Z,25.90
2022-08-09T11:12:17.212Z,25.80
2022-08-09T11:15:24.590Z,25.80
2022-08-09T11:18:44.910Z,25.90
2022-08-09T11:22:16.583Z,25.90
2022-08-09T11:25:09.886Z,25.70
2022-08-09T11:28:04.791Z,25.70
2022-08-09T11:30:58.107Z,25.70
2022-08-09T11:33:52.413Z,25.80
2022-08-09T11:36:44.276Z,25.90
2022-08-09T11:40:02.892Z,26.00
2022-08-09T11:42:55.789Z,26.00
2022-08-09T11:45:56.087Z,26.10
2022-08-09T11:48:50.828Z,26.10
2022-08-09T11:53:03.627Z,26.10
2022-08-09T11:55:51.950Z,26.10
2022-08-09T11:58:50.278Z,26.00
2022-08-09T12:02:16.056Z,26.00
2022-08-09T12:04:58.143Z,26.10
2022-08-09T12:07:47.811Z,26.20
2022-08-09T12:10:44.627Z,26.40
2022-08-09T12:14:08.474Z,26.60
2022-08-09T12:16:48.838Z,26.50
2022-08-09T12:19:42.723Z,26.60
2022-08-09T12:22:32.302Z,27.10
2022-08-09T12:25:37.649Z,27.60
2022-08-09T12:28:58.339Z,28.00
2022-08-09T12:31:58.984Z,28.20
2022-08-09T12:34:46.044Z,28.20
2022-08-09T12:37:49.920Z,28.20
2022-08-09T12:40:46.287Z,28.60
2022-08-09T12:44:06.178Z,28.60
2022-08-09T12:46:49.931Z,29.10
2022-08-09T12:49:40.078Z,29.10
2022-08-09T12:52:58.442Z,28.80
2022-08-09T12:56:14.539Z,28.20
2022-08-09T12:59:11.857Z,27.90
2022-08-09T13:02:09.316Z,27.80
2022-08-09T13:05:02.950Z,28.00
2022-08-09T13:08:14.604Z,28.80
2022-08-09T13:11:13.238Z,29.70
2022-08-09T13:14:42.959Z,28.80
2022-08-09T13:18:02.655Z,27.80
2022-08-09T13:20:37.124Z,27.30
2022-08-09T13:24:16.007Z,27.40
2022-08-09T13:26:52.201Z,27.40
2022-08-09T13:30:04.294Z,27.70
2022-08-09T13:33:02.982Z,27.90
2022-08-09T13:36:39.457Z,28.00
2022-08-09T13:39:08.304Z,28.30
2022-08-09T13:42:12.973Z,28.60
2022-08-09T13:45:03.258Z,29.00
2022-08-09T13:47:59.052Z,28.90
2022-08-09T13:50:48.260Z,29.10
2022-08-09T13:53:43.604Z,28.80
2022-08-09T13:56:33.674Z,28.70
2022-08-09T13:59:25.127Z,28.60
2022-08-09T14:02:25.511Z,28.50
2022-08-09T14:05:58.172Z,28.40
2022-08-09T14:08:23.734Z,28.40
2022-08-09T14:11:16.730Z,27.80
2022-08-09T14:14:24.070Z,27.70
2022-08-09T14:17:16.963Z,27.80
2022-08-09T14:20:12.672Z,28.00
2022-08-09T14:23:04.754Z,28.10
2022-08-09T14:25:56.113Z,28.00
2022-08-09T14:28:50.015Z,27.60
2022-08-09T14:31:52.023Z,27.20
2022-08-09T14:34:43.790Z,27.20
2022-08-09T14:38:01.564Z,27.30
2022-08-09T14:41:01.900Z,27.50
2022-08-09T14:43:53.756Z,27.60
2022-08-09T14:47:00.697Z,27.70
2022-08-09T14:50:01.313Z,28.00
2022-08-09T14:52:51.089Z,28.20
2022-08-09T14:55:42.408Z,28.00
2022-08-09T14:58:38.033Z,27.90
2022-08-09T15:01:32.714Z,28.00
2022-08-09T15:04:23.417Z,27.90
2022-08-09T15:07:13.885Z,27.90
2022-08-09T15:10:11.105Z,27.60
2022-08-09T15:13:04.824Z,27.50
2022-08-09T15:15:57.242Z,27.60
2022-08-09T15:18:49.470Z,27.80
2022-08-09T15:21:57.606Z,28.00
2022-08-09T15:24:48.316Z,28.20
2022-08-09T15:27:47.459Z,28.20
2022-08-09T15:30:59.193Z,28.10
2022-08-09T15:34:27.408Z,28.00
2022-08-09T15:36:59.573Z,27.90
2022-08-09T15:39:53.775Z,27.60
2022-08-09T15:42:45.304Z,27.50
2022-08-09T15:46:08.131Z,27.50
2022-08-09T15:48:42.624Z,27.50
2022-08-09T15:52:02.703Z,27.50
2022-08-09T15:54:54.372Z,27.40
2022-08-09T15:57:44.548Z,27.30
2022-08-09T16:00:40.234Z,27.20
2022-08-09T16:03:38.055Z,27.30
2022-08-09T16:06:35.374Z,27.20
2022-08-09T16:09:32.329Z,27.10
2022-08-09T16:12:36.361Z,27.00
2022-08-09T16:16:10.790Z,27.00
2022-08-09T16:18:45.251Z,27.00
2022-08-09T16:21:35.229Z,26.90
2022-08-09T16:24:32.909Z,26.80
2022-08-09T16:27:22.659Z,26.80
2022-08-09T16:30:15.220Z,26.80
2022-08-09T16:33:15.727Z,26.90
2022-08-09T16:36:11.842Z,26.80
2022-08-09T16:39:05.407Z,26.70
2022-08-09T16:42:02.498Z,26.80
2022-08-09T16:44:53.307Z,26.70
2022-08-09T16:48:39.646Z,26.70
2022-08-09T16:50:59.669Z,26.70
2022-08-09T16:54:25.176Z,26.60
2022-08-09T16:57:05.911Z,26.60
2022-08-09T16:59:59.341Z,26.60
2022-08-09T17:02:49.296Z,26.60
2022-08-09T17:06:07.238Z,26.50
2022-08-09T17:09:01.748Z,26.50
2022-08-09T17:11:55.479Z,26.40
2022-08-09T17:14:46.378Z,26.30
2022-08-09T17:17:51.034Z,26.30
2022-08-09T17:20:49.208Z,26.20
2022-08-09T17:24:21.419Z,26.20
2022-08-09T17:26:53.779Z,26.20
2022-08-09T17:29:45.503Z,26.10
2022-08-09T17:33:22.519Z,26.00
2022-08-09T17:36:15.600Z,25.90
2022-08-09T17:39:04.649Z,25.90
2022-08-09T17:41:57.169Z,25.80
2022-08-09T17:44:50.273Z,25.80
2022-08-09T17:47:49.516Z,25.80
2022-08-09T17:50:48.540Z,25.70
2022-08-09T17:53:51.601Z,25.70
2022-08-09T17:56:42.378Z,25.60
2022-08-09T17:59:38.443Z,25.50
2022-08-09T18:02:30.272Z,25.50
2022-08-09T18:05:22.250Z,25.40
2022-08-09T18:08:17.985Z,25.30
2022-08-09T18:11:16.342Z,25.20
2022-08-09T18:14:13.193Z,25.20
2022-08-09T18:17:03.654Z,25.10
2022-08-09T18:21:00.003Z,25.00
2022-08-09T18:23:05.019Z,25.00
2022-08-09T18:25:57.663Z,24.90
2022-08-09T18:30:42.690Z,24.80
2022-08-09T18:31:57.095Z,24.70
2022-08-09T18:34:45.820Z,24.60
2022-08-09T18:37:48.090Z,24.60
2022-08-09T18:40:45.134Z,24.50
2022-08-09T18:43:35.076Z,24.40
2022-08-09T18:46:47.910Z,24.30
2022-08-09T18:49:43.734Z,24.20
2022-08-09T18:52:35.870Z,24.10
2022-08-09T18:55:45.488Z,23.90
2022-08-09T18:58:34.012Z,23.80
2022-08-09T19:01:25.889Z,23.50
2022-08-09T19:04:14.684Z,23.30
2022-08-09T19:07:05.269Z,23.10
2022-08-09T19:10:15.778Z,22.90
2022-08-09T19:13:20.207Z,22.70
2022-08-09T19:16:13.065Z,22.60
2022-08-09T19:19:21.274Z,22.40
2022-08-09T19:22:12.387Z,22.30
2022-08-09T19:25:11.918Z,22.20
2022-08-09T19:28:14.934Z,22.00
2022-08-09T19:31:04.354Z,22.00
2022-08-09T19:33:56.876Z,21.90
2022-08-09T19:36:48.018Z,21.80
2022-08-09T19:40:02.666Z,21.70
2022-08-09T19:42:45.444Z,21.60
2022-08-09T19:45:40.074Z,21.60
2022-08-09T19:49:02.038Z,21.50
2022-08-09T19:51:40.315Z,21.40
2022-08-09T19:54:39.134Z,21.40
2022-08-09T19:57:27.988Z,21.40
2022-08-09T20:00:17.572Z,21.30
2022-08-09T20:04:17.282Z,21.30
2022-08-09T20:06:23.300Z,21.30
2022-08-09T20:09:20.606Z,21.20
2022-08-09T20:12:27.093Z,21.30
2022-08-09T20:16:38.150Z,21.20
2022-08-09T20:18:30.898Z,21.20
2022-08-09T20:21:19.623Z,21.20
2022-08-09T20:24:10.881Z,21.20
2022-08-09T20:26:59.589Z,21.10
2022-08-09T20:29:50.493Z,21.20
2022-08-09T20:32:39.776Z,21.20
2022-08-09T20:35:28.553Z,21.20
2022-08-09T20:38:33.168Z,21.20
2022-08-09T20:41:29.242Z,21.30
2022-08-09T20:44:26.887Z,21.40
2022-08-09T20:47:23.861Z,21.40
2022-08-09T20:50:47.676Z,21.40
2022-08-09T20:53:39.071Z,21.40
2022-08-09T20:56:27.973Z,21.40
2022-08-09T20:59:25.136Z,21.40
2022-08-09T21:02:31.790Z,21.30
2022-08-09T21:05:51.071Z,21.30
2022-08-09T21:08:36.519Z,21.40
2022-08-09T21:14:38.302Z,21.30
2022-08-09T21:18:11.796Z,21.30
2022-08-09T21:20:39.146Z,21.20
2022-08-09T21:23:51.512Z,21.20
2022-08-09T21:26:37.144Z,21.10
2022-08-09T21:29:28.043Z,21.00
2022-08-09T21:32:38.132Z,21.00
2022-08-09T21:35:27.168Z,20.90
2022-08-09T21:38:30.998Z,20.90
2022-08-09T21:41:20.478Z,20.90
2022-08-09T21:44:34.403Z,21.00
2022-08-09T21:47:24.355Z,21.00
2022-08-09T21:50:17.636Z,21.00
2022-08-09T21:53:19.965Z,20.90
2022-08-09T21:56:33.984Z,20.90
2022-08-09T21:59:29.422Z,20.90
2022-08-09T22:02:36.155Z,20.80
2022-08-09T22:05:36.887Z,20.80
2022-08-09T22:08:31.378Z,20.80
2022-08-09T22:12:06.627Z,20.80
2022-08-09T22:14:28.740Z,20.70
2022-08-09T22:17:21.174Z,20.70
2022-08-09T22:20:10.796Z,20.60
2022-08-09T22:23:10.481Z,20.60
2022-08-09T22:26:07.585Z,20.50
2022-08-09T22:28:58.735Z,20.50
2022-08-09T22:31:57.257Z,20.40
2022-08-09T22:34:59.085Z,20.40
2022-08-09T22:38:06.669Z,20.40
2022-08-09T22:40:58.519Z,20.20
2022-08-09T22:44:02.249Z,20.20
2022-08-09T22:48:16.015Z,20.10
2022-08-09T22:50:01.218Z,20.10
2022-08-09T22:52:54.899Z,20.10
2022-08-09T22:56:29.934Z,20.10
2022-08-09T22:58:57.789Z,20.00
2022-08-09T23:01:46.607Z,20.00
2022-08-09T23:04:38.279Z,20.00
2022-08-09T23:08:27.483Z,19.90
2022-08-09T23:10:54.386Z,19.90
2022-08-09T23:13:44.822Z,19.90
2022-08-09T23:16:34.945Z,19.90
2022-08-09T23:19:30.894Z,19.80
2022-08-09T23:22:39.496Z,19.70
2022-08-09T23:25:28.349Z,19.70
2022-08-09T23:28:17.057Z,19.60
2022-08-09T23:31:05.916Z,19.50
2022-08-09T23:33:56.009Z,19.50
2022-08-09T23:36:44.674Z,19.50
2022-08-09T23:39:33.747Z,19.50
2022-08-09T23:42:22.444Z,19.40
2022-08-09T23:45:36.994Z,19.40
2022-08-09T23:48:20.970Z,19.30
2022-08-09T23:51:11.131Z,19.30
2022-08-09T23:54:02.357Z,19.20
2022-08-09T23:56:54.464Z,19.20
